sensor_id;sensor_type;location;lat;lon;timestamp;P1;durP1;ratioP1;P2;durP2;ratioP2
71655;SDS011;59497;48.798;8.816;2024-01-30T00:01:10;9.73;;;5.30;;
71655;SDS011;59497;48.798;8.816;2024-01-30T00:03:36;11.07;;;6.07;;
71655;SDS011;59497;48.798;8.816;2024-01-30T00:06:02;10.03;;;5.27;;
71655;SDS011;59497;48.798;8.816;2024-01-30T00:08:28;8.98;;;5.05;;
71655;SDS011;59497;48.798;8.816;2024-01-30T00:10:53;8.07;;;4.73;;
71655;SDS011;59497;48.798;8.816;2024-01-30T00:13:18;8.90;;;4.87;;
71655;SDS011;59497;48.798;8.816;2024-01-30T00:15:44;10.63;;;5.82;;
71655;SDS011;59497;48.798;8.816;2024-01-30T00:18:10;11.43;;;6.63;;
71655;SDS011;59497;48.798;8.816;2024-01-30T00:20:35;11.80;;;6.67;;
71655;SDS011;59497;48.798;8.816;2024-01-30T00:23:00;13.10;;;6.53;;
71655;SDS011;59497;48.798;8.816;2024-01-30T00:25:26;10.68;;;6.45;;
71655;SDS011;59497;48.798;8.816;2024-01-30T00:27:51;11.40;;;6.20;;
71655;SDS011;59497;48.798;8.816;2024-01-30T00:30:17;10.03;;;5.93;;
71655;SDS011;59497;48.798;8.816;2024-01-30T00:32:42;8.67;;;4.30;;
71655;SDS011;59497;48.798;8.816;2024-01-30T00:35:07;10.77;;;4.57;;
71655;SDS011;59497;48.798;8.816;2024-01-30T00:37:34;8.43;;;4.45;;
71655;SDS011;59497;48.798;8.816;2024-01-30T00:40:00;7.20;;;4.20;;
71655;SDS011;59497;48.798;8.816;2024-01-30T00:42:25;5.60;;;3.43;;
71655;SDS011;59497;48.798;8.816;2024-01-30T00:44:50;6.93;;;4.20;;
71655;SDS011;59497;48.798;8.816;2024-01-30T00:47:15;7.17;;;4.60;;
71655;SDS011;59497;48.798;8.816;2024-01-30T00:49:41;7.33;;;4.53;;
71655;SDS011;59497;48.798;8.816;2024-01-30T00:52:06;7.17;;;4.37;;
71655;SDS011;59497;48.798;8.816;2024-01-30T00:54:31;7.40;;;4.60;;
71655;SDS011;59497;48.798;8.816;2024-01-30T00:56:56;8.77;;;5.03;;
71655;SDS011;59497;48.798;8.816;2024-01-30T00:59:21;9.73;;;5.13;;
71655;SDS011;59497;48.798;8.816;2024-01-30T01:01:47;8.83;;;4.10;;
71655;SDS011;59497;48.798;8.816;2024-01-30T01:04:12;6.43;;;3.87;;
71655;SDS011;59497;48.798;8.816;2024-01-30T01:06:37;6.20;;;3.50;;
71655;SDS011;59497;48.798;8.816;2024-01-30T01:09:02;5.57;;;2.80;;
71655;SDS011;59497;48.798;8.816;2024-01-30T01:11:28;5.97;;;3.13;;
71655;SDS011;59497;48.798;8.816;2024-01-30T01:13:54;6.53;;;3.40;;
71655;SDS011;59497;48.798;8.816;2024-01-30T01:16:19;5.27;;;3.40;;
71655;SDS011;59497;48.798;8.816;2024-01-30T01:18:44;4.83;;;3.20;;
71655;SDS011;59497;48.798;8.816;2024-01-30T01:21:09;8.87;;;3.33;;
71655;SDS011;59497;48.798;8.816;2024-01-30T01:23:34;7.27;;;3.70;;
71655;SDS011;59497;48.798;8.816;2024-01-30T01:26:00;6.60;;;3.50;;
71655;SDS011;59497;48.798;8.816;2024-01-30T01:28:25;8.10;;;4.70;;
71655;SDS011;59497;48.798;8.816;2024-01-30T01:30:51;11.60;;;5.83;;
71655;SDS011;59497;48.798;8.816;2024-01-30T01:33:16;9.37;;;5.40;;
71655;SDS011;59497;48.798;8.816;2024-01-30T01:35:42;9.75;;;5.30;;
71655;SDS011;59497;48.798;8.816;2024-01-30T01:38:07;10.33;;;5.03;;
71655;SDS011;59497;48.798;8.816;2024-01-30T01:40:32;10.37;;;5.60;;
71655;SDS011;59497;48.798;8.816;2024-01-30T01:42:58;11.47;;;5.40;;
71655;SDS011;59497;48.798;8.816;2024-01-30T01:45:23;12.33;;;5.37;;
71655;SDS011;59497;48.798;8.816;2024-01-30T01:47:51;6.63;;;4.83;;
71655;SDS011;59497;48.798;8.816;2024-01-30T01:50:17;8.75;;;4.85;;
71655;SDS011;59497;48.798;8.816;2024-01-30T01:52:49;7.03;;;4.07;;
71655;SDS011;59497;48.798;8.816;2024-01-30T01:55:15;7.73;;;4.07;;
71655;SDS011;59497;48.798;8.816;2024-01-30T01:57:41;6.18;;;3.67;;
71655;SDS011;59497;48.798;8.816;2024-01-30T02:00:07;6.78;;;3.60;;
71655;SDS011;59497;48.798;8.816;2024-01-30T02:02:35;5.30;;;3.17;;
71655;SDS011;59497;48.798;8.816;2024-01-30T02:05:00;5.28;;;2.72;;
71655;SDS011;59497;48.798;8.816;2024-01-30T02:07:26;5.87;;;2.80;;
71655;SDS011;59497;48.798;8.816;2024-01-30T02:09:52;4.13;;;2.13;;
71655;SDS011;59497;48.798;8.816;2024-01-30T02:12:17;6.97;;;3.77;;
71655;SDS011;59497;48.798;8.816;2024-01-30T02:14:45;4.27;;;2.67;;
71655;SDS011;59497;48.798;8.816;2024-01-30T02:17:11;3.67;;;2.13;;
71655;SDS011;59497;48.798;8.816;2024-01-30T02:19:36;6.13;;;3.37;;
71655;SDS011;59497;48.798;8.816;2024-01-30T02:22:02;4.53;;;2.53;;
71655;SDS011;59497;48.798;8.816;2024-01-30T02:24:27;5.37;;;2.40;;
71655;SDS011;59497;48.798;8.816;2024-01-30T02:26:52;4.77;;;2.43;;
71655;SDS011;59497;48.798;8.816;2024-01-30T02:29:17;5.50;;;3.40;;
71655;SDS011;59497;48.798;8.816;2024-01-30T02:31:43;11.63;;;5.73;;
71655;SDS011;59497;48.798;8.816;2024-01-30T02:34:08;11.00;;;5.70;;
71655;SDS011;59497;48.798;8.816;2024-01-30T02:36:33;10.30;;;5.93;;
71655;SDS011;59497;48.798;8.816;2024-01-30T02:38:58;12.33;;;7.30;;
71655;SDS011;59497;48.798;8.816;2024-01-30T02:41:23;10.20;;;6.20;;
71655;SDS011;59497;48.798;8.816;2024-01-30T02:43:49;12.17;;;7.67;;
71655;SDS011;59497;48.798;8.816;2024-01-30T02:46:14;13.13;;;6.90;;
71655;SDS011;59497;48.798;8.816;2024-01-30T02:48:39;11.93;;;6.57;;
71655;SDS011;59497;48.798;8.816;2024-01-30T02:51:04;13.37;;;6.73;;
71655;SDS011;59497;48.798;8.816;2024-01-30T02:53:29;12.63;;;6.67;;
71655;SDS011;59497;48.798;8.816;2024-01-30T02:55:55;12.10;;;6.70;;
71655;SDS011;59497;48.798;8.816;2024-01-30T02:58:20;12.00;;;6.40;;
71655;SDS011;59497;48.798;8.816;2024-01-30T03:00:45;11.40;;;6.70;;
71655;SDS011;59497;48.798;8.816;2024-01-30T03:03:10;10.00;;;5.63;;
71655;SDS011;59497;48.798;8.816;2024-01-30T03:05:36;11.97;;;5.90;;
71655;SDS011;59497;48.798;8.816;2024-01-30T03:08:01;8.60;;;5.17;;
71655;SDS011;59497;48.798;8.816;2024-01-30T03:10:26;8.80;;;5.20;;
71655;SDS011;59497;48.798;8.816;2024-01-30T03:12:51;11.00;;;5.57;;
71655;SDS011;59497;48.798;8.816;2024-01-30T03:15:16;11.00;;;5.80;;
71655;SDS011;59497;48.798;8.816;2024-01-30T03:17:42;10.90;;;4.93;;
71655;SDS011;59497;48.798;8.816;2024-01-30T03:20:07;9.63;;;4.80;;
71655;SDS011;59497;48.798;8.816;2024-01-30T03:22:32;8.70;;;4.43;;
71655;SDS011;59497;48.798;8.816;2024-01-30T03:24:58;7.10;;;4.70;;
71655;SDS011;59497;48.798;8.816;2024-01-30T03:27:23;9.97;;;5.00;;
71655;SDS011;59497;48.798;8.816;2024-01-30T03:29:48;7.93;;;4.73;;
71655;SDS011;59497;48.798;8.816;2024-01-30T03:32:13;6.03;;;3.73;;
71655;SDS011;59497;48.798;8.816;2024-01-30T03:34:39;6.03;;;3.47;;
71655;SDS011;59497;48.798;8.816;2024-01-30T03:37:04;6.83;;;3.27;;
71655;SDS011;59497;48.798;8.816;2024-01-30T03:39:30;5.40;;;3.27;;
71655;SDS011;59497;48.798;8.816;2024-01-30T03:41:55;6.87;;;3.43;;
71655;SDS011;59497;48.798;8.816;2024-01-30T03:44:21;5.95;;;2.90;;
71655;SDS011;59497;48.798;8.816;2024-01-30T03:46:46;5.17;;;3.00;;
71655;SDS011;59497;48.798;8.816;2024-01-30T03:49:11;6.33;;;2.97;;
71655;SDS011;59497;48.798;8.816;2024-01-30T03:51:36;4.73;;;2.73;;
71655;SDS011;59497;48.798;8.816;2024-01-30T03:54:02;5.93;;;2.93;;
71655;SDS011;59497;48.798;8.816;2024-01-30T03:56:27;6.10;;;3.07;;
71655;SDS011;59497;48.798;8.816;2024-01-30T03:58:52;6.27;;;3.53;;
71655;SDS011;59497;48.798;8.816;2024-01-30T04:01:17;6.07;;;3.13;;
71655;SDS011;59497;48.798;8.816;2024-01-30T04:03:43;5.23;;;3.00;;
71655;SDS011;59497;48.798;8.816;2024-01-30T04:06:09;6.63;;;3.33;;
71655;SDS011;59497;48.798;8.816;2024-01-30T04:08:34;6.87;;;3.63;;
71655;SDS011;59497;48.798;8.816;2024-01-30T04:11:03;5.77;;;3.13;;
71655;SDS011;59497;48.798;8.816;2024-01-30T04:13:28;7.50;;;3.55;;
71655;SDS011;59497;48.798;8.816;2024-01-30T04:15:53;7.70;;;4.10;;
71655;SDS011;59497;48.798;8.816;2024-01-30T04:18:20;6.72;;;3.65;;
71655;SDS011;59497;48.798;8.816;2024-01-30T04:20:45;7.90;;;3.57;;
71655;SDS011;59497;48.798;8.816;2024-01-30T04:23:10;8.03;;;4.07;;
71655;SDS011;59497;48.798;8.816;2024-01-30T04:25:35;5.20;;;2.77;;
71655;SDS011;59497;48.798;8.816;2024-01-30T04:28:01;4.63;;;2.97;;
71655;SDS011;59497;48.798;8.816;2024-01-30T04:30:26;7.57;;;3.70;;
71655;SDS011;59497;48.798;8.816;2024-01-30T04:32:51;5.47;;;3.20;;
71655;SDS011;59497;48.798;8.816;2024-01-30T04:35:16;4.37;;;2.80;;
71655;SDS011;59497;48.798;8.816;2024-01-30T04:37:42;6.23;;;3.07;;
71655;SDS011;59497;48.798;8.816;2024-01-30T04:40:07;5.67;;;3.13;;
71655;SDS011;59497;48.798;8.816;2024-01-30T04:42:33;6.18;;;3.13;;
71655;SDS011;59497;48.798;8.816;2024-01-30T04:44:58;6.15;;;3.00;;
71655;SDS011;59497;48.798;8.816;2024-01-30T04:47:23;4.80;;;2.47;;
71655;SDS011;59497;48.798;8.816;2024-01-30T04:49:48;5.07;;;2.57;;
71655;SDS011;59497;48.798;8.816;2024-01-30T04:52:15;6.83;;;2.70;;
71655;SDS011;59497;48.798;8.816;2024-01-30T04:54:40;4.45;;;2.70;;
71655;SDS011;59497;48.798;8.816;2024-01-30T04:57:06;5.65;;;2.70;;
71655;SDS011;59497;48.798;8.816;2024-01-30T04:59:34;5.53;;;2.57;;
71655;SDS011;59497;48.798;8.816;2024-01-30T05:02:00;6.03;;;3.60;;
71655;SDS011;59497;48.798;8.816;2024-01-30T05:04:25;6.43;;;3.40;;
71655;SDS011;59497;48.798;8.816;2024-01-30T05:06:50;6.70;;;3.30;;
71655;SDS011;59497;48.798;8.816;2024-01-30T05:09:15;7.73;;;3.67;;
71655;SDS011;59497;48.798;8.816;2024-01-30T05:11:41;7.50;;;3.40;;
71655;SDS011;59497;48.798;8.816;2024-01-30T05:14:06;5.63;;;3.30;;
71655;SDS011;59497;48.798;8.816;2024-01-30T05:16:31;7.40;;;4.00;;
71655;SDS011;59497;48.798;8.816;2024-01-30T05:18:57;7.57;;;4.37;;
71655;SDS011;59497;48.798;8.816;2024-01-30T05:21:22;19.42;;;7.70;;
71655;SDS011;59497;48.798;8.816;2024-01-30T05:23:47;19.10;;;8.30;;
71655;SDS011;59497;48.798;8.816;2024-01-30T05:26:13;12.77;;;5.93;;
71655;SDS011;59497;48.798;8.816;2024-01-30T05:28:38;15.97;;;7.47;;
71655;SDS011;59497;48.798;8.816;2024-01-30T05:31:03;10.43;;;5.93;;
71655;SDS011;59497;48.798;8.816;2024-01-30T05:33:28;8.90;;;5.23;;
71655;SDS011;59497;48.798;8.816;2024-01-30T05:35:54;9.60;;;5.23;;
71655;SDS011;59497;48.798;8.816;2024-01-30T05:38:19;11.67;;;5.30;;
71655;SDS011;59497;48.798;8.816;2024-01-30T05:40:44;9.33;;;5.27;;
71655;SDS011;59497;48.798;8.816;2024-01-30T05:43:09;9.57;;;5.90;;
71655;SDS011;59497;48.798;8.816;2024-01-30T05:45:35;8.73;;;5.57;;
71655;SDS011;59497;48.798;8.816;2024-01-30T05:48:01;20.40;;;9.45;;
71655;SDS011;59497;48.798;8.816;2024-01-30T05:50:26;19.30;;;9.03;;
71655;SDS011;59497;48.798;8.816;2024-01-30T05:52:52;10.73;;;6.07;;
71655;SDS011;59497;48.798;8.816;2024-01-30T05:55:17;10.33;;;5.40;;
71655;SDS011;59497;48.798;8.816;2024-01-30T05:57:42;14.13;;;6.07;;
71655;SDS011;59497;48.798;8.816;2024-01-30T06:00:07;9.80;;;6.00;;
71655;SDS011;59497;48.798;8.816;2024-01-30T06:02:33;8.87;;;5.07;;
71655;SDS011;59497;48.798;8.816;2024-01-30T06:04:59;11.02;;;5.57;;
71655;SDS011;59497;48.798;8.816;2024-01-30T06:07:24;11.07;;;5.13;;
71655;SDS011;59497;48.798;8.816;2024-01-30T06:09:49;8.30;;;4.90;;
71655;SDS011;59497;48.798;8.816;2024-01-30T06:12:15;10.03;;;5.63;;
71655;SDS011;59497;48.798;8.816;2024-01-30T06:14:40;12.80;;;5.90;;
71655;SDS011;59497;48.798;8.816;2024-01-30T06:17:07;10.43;;;5.30;;
71655;SDS011;59497;48.798;8.816;2024-01-30T06:19:32;10.20;;;5.60;;
71655;SDS011;59497;48.798;8.816;2024-01-30T06:21:57;10.53;;;5.67;;
71655;SDS011;59497;48.798;8.816;2024-01-30T06:24:23;11.27;;;7.13;;
71655;SDS011;59497;48.798;8.816;2024-01-30T06:26:48;11.00;;;7.10;;
71655;SDS011;59497;48.798;8.816;2024-01-30T06:29:13;14.67;;;8.93;;
71655;SDS011;59497;48.798;8.816;2024-01-30T06:31:40;13.73;;;8.27;;
71655;SDS011;59497;48.798;8.816;2024-01-30T06:34:06;12.30;;;7.55;;
71655;SDS011;59497;48.798;8.816;2024-01-30T06:36:31;11.20;;;7.20;;
71655;SDS011;59497;48.798;8.816;2024-01-30T06:38:57;11.97;;;6.93;;
71655;SDS011;59497;48.798;8.816;2024-01-30T06:41:22;11.50;;;6.63;;
71655;SDS011;59497;48.798;8.816;2024-01-30T06:43:47;11.50;;;6.43;;
71655;SDS011;59497;48.798;8.816;2024-01-30T06:46:12;11.67;;;6.90;;
71655;SDS011;59497;48.798;8.816;2024-01-30T06:48:38;11.23;;;7.07;;
71655;SDS011;59497;48.798;8.816;2024-01-30T06:51:05;10.45;;;6.35;;
71655;SDS011;59497;48.798;8.816;2024-01-30T06:53:30;10.90;;;6.03;;
71655;SDS011;59497;48.798;8.816;2024-01-30T06:55:55;11.17;;;6.57;;
71655;SDS011;59497;48.798;8.816;2024-01-30T06:58:21;11.43;;;6.80;;
71655;SDS011;59497;48.798;8.816;2024-01-30T07:00:46;12.53;;;7.43;;
71655;SDS011;59497;48.798;8.816;2024-01-30T07:03:11;11.87;;;6.70;;
71655;SDS011;59497;48.798;8.816;2024-01-30T07:05:36;9.37;;;6.17;;
71655;SDS011;59497;48.798;8.816;2024-01-30T07:08:01;10.77;;;6.93;;
71655;SDS011;59497;48.798;8.816;2024-01-30T07:10:27;9.30;;;5.43;;
71655;SDS011;59497;48.798;8.816;2024-01-30T07:12:52;10.10;;;5.67;;
71655;SDS011;59497;48.798;8.816;2024-01-30T07:15:17;9.67;;;5.50;;
71655;SDS011;59497;48.798;8.816;2024-01-30T07:17:45;10.75;;;5.80;;
71655;SDS011;59497;48.798;8.816;2024-01-30T07:20:11;9.90;;;5.53;;
71655;SDS011;59497;48.798;8.816;2024-01-30T07:22:36;9.43;;;5.20;;
71655;SDS011;59497;48.798;8.816;2024-01-30T07:25:01;8.30;;;4.87;;
71655;SDS011;59497;48.798;8.816;2024-01-30T07:27:26;8.10;;;4.47;;
71655;SDS011;59497;48.798;8.816;2024-01-30T07:29:52;10.90;;;4.77;;
71655;SDS011;59497;48.798;8.816;2024-01-30T07:32:17;7.23;;;3.87;;
71655;SDS011;59497;48.798;8.816;2024-01-30T07:34:43;7.57;;;4.72;;
71655;SDS011;59497;48.798;8.816;2024-01-30T07:37:09;6.53;;;4.10;;
71655;SDS011;59497;48.798;8.816;2024-01-30T07:39:34;6.88;;;4.07;;
71655;SDS011;59497;48.798;8.816;2024-01-30T07:42:00;8.10;;;4.00;;
71655;SDS011;59497;48.798;8.816;2024-01-30T07:44:25;8.17;;;5.10;;
71655;SDS011;59497;48.798;8.816;2024-01-30T07:46:51;10.70;;;4.83;;
71655;SDS011;59497;48.798;8.816;2024-01-30T07:49:16;13.48;;;6.10;;
71655;SDS011;59497;48.798;8.816;2024-01-30T07:51:41;10.57;;;5.57;;
71655;SDS011;59497;48.798;8.816;2024-01-30T07:54:16;9.57;;;6.10;;
71655;SDS011;59497;48.798;8.816;2024-01-30T07:56:42;7.85;;;5.07;;
71655;SDS011;59497;48.798;8.816;2024-01-30T07:59:11;10.53;;;5.87;;
71655;SDS011;59497;48.798;8.816;2024-01-30T08:01:36;10.00;;;6.03;;
71655;SDS011;59497;48.798;8.816;2024-01-30T08:04:01;13.23;;;6.50;;
71655;SDS011;59497;48.798;8.816;2024-01-30T08:06:27;12.23;;;6.83;;
71655;SDS011;59497;48.798;8.816;2024-01-30T08:08:52;14.57;;;7.30;;
71655;SDS011;59497;48.798;8.816;2024-01-30T08:11:19;16.43;;;7.93;;
71655;SDS011;59497;48.798;8.816;2024-01-30T08:13:45;14.85;;;7.28;;
71655;SDS011;59497;48.798;8.816;2024-01-30T08:16:10;17.57;;;8.23;;
71655;SDS011;59497;48.798;8.816;2024-01-30T08:18:35;17.60;;;9.40;;
71655;SDS011;59497;48.798;8.816;2024-01-30T08:21:00;19.17;;;9.10;;
71655;SDS011;59497;48.798;8.816;2024-01-30T08:23:25;16.00;;;8.67;;
71655;SDS011;59497;48.798;8.816;2024-01-30T08:25:51;13.83;;;8.30;;
71655;SDS011;59497;48.798;8.816;2024-01-30T08:28:16;13.30;;;7.30;;
71655;SDS011;59497;48.798;8.816;2024-01-30T08:30:41;11.27;;;6.67;;
71655;SDS011;59497;48.798;8.816;2024-01-30T08:33:06;21.08;;;12.57;;
71655;SDS011;59497;48.798;8.816;2024-01-30T08:35:32;13.93;;;7.83;;
71655;SDS011;59497;48.798;8.816;2024-01-30T08:37:58;16.37;;;9.13;;
71655;SDS011;59497;48.798;8.816;2024-01-30T08:40:23;14.68;;;8.43;;
71655;SDS011;59497;48.798;8.816;2024-01-30T08:42:49;15.87;;;8.03;;
71655;SDS011;59497;48.798;8.816;2024-01-30T08:45:14;10.83;;;6.90;;
71655;SDS011;59497;48.798;8.816;2024-01-30T08:47:40;10.97;;;6.93;;
71655;SDS011;59497;48.798;8.816;2024-01-30T08:50:05;10.60;;;5.93;;
71655;SDS011;59497;48.798;8.816;2024-01-30T08:52:30;16.23;;;9.27;;
71655;SDS011;59497;48.798;8.816;2024-01-30T08:54:56;16.33;;;8.90;;
71655;SDS011;59497;48.798;8.816;2024-01-30T08:57:21;17.67;;;9.43;;
71655;SDS011;59497;48.798;8.816;2024-01-30T08:59:46;17.87;;;8.70;;
71655;SDS011;59497;48.798;8.816;2024-01-30T09:02:12;14.67;;;8.60;;
71655;SDS011;59497;48.798;8.816;2024-01-30T09:04:38;11.45;;;6.75;;
71655;SDS011;59497;48.798;8.816;2024-01-30T09:07:03;12.33;;;7.43;;
71655;SDS011;59497;48.798;8.816;2024-01-30T09:09:31;12.05;;;6.65;;
71655;SDS011;59497;48.798;8.816;2024-01-30T09:11:57;16.45;;;8.20;;
71655;SDS011;59497;48.798;8.816;2024-01-30T09:14:27;18.10;;;8.20;;
71655;SDS011;59497;48.798;8.816;2024-01-30T09:16:52;16.47;;;7.77;;
71655;SDS011;59497;48.798;8.816;2024-01-30T09:19:17;14.87;;;8.63;;
71655;SDS011;59497;48.798;8.816;2024-01-30T09:21:42;15.80;;;8.23;;
71655;SDS011;59497;48.798;8.816;2024-01-30T09:24:08;12.40;;;7.67;;
71655;SDS011;59497;48.798;8.816;2024-01-30T09:26:33;13.30;;;7.60;;
71655;SDS011;59497;48.798;8.816;2024-01-30T09:28:59;9.57;;;6.87;;
71655;SDS011;59497;48.798;8.816;2024-01-30T09:31:24;10.53;;;6.27;;
71655;SDS011;59497;48.798;8.816;2024-01-30T09:33:49;11.20;;;6.23;;
71655;SDS011;59497;48.798;8.816;2024-01-30T09:36:16;10.75;;;6.38;;
71655;SDS011;59497;48.798;8.816;2024-01-30T09:38:43;14.15;;;7.03;;
71655;SDS011;59497;48.798;8.816;2024-01-30T09:41:09;11.43;;;7.60;;
71655;SDS011;59497;48.798;8.816;2024-01-30T09:43:35;13.00;;;8.05;;
71655;SDS011;59497;48.798;8.816;2024-01-30T09:46:00;12.37;;;7.47;;
71655;SDS011;59497;48.798;8.816;2024-01-30T09:48:27;12.95;;;7.22;;
71655;SDS011;59497;48.798;8.816;2024-01-30T09:50:53;10.13;;;6.30;;
71655;SDS011;59497;48.798;8.816;2024-01-30T09:53:18;14.63;;;10.17;;
71655;SDS011;59497;48.798;8.816;2024-01-30T09:55:44;11.73;;;8.45;;
71655;SDS011;59497;48.798;8.816;2024-01-30T09:58:09;11.83;;;7.80;;
71655;SDS011;59497;48.798;8.816;2024-01-30T10:00:34;12.33;;;7.27;;
71655;SDS011;59497;48.798;8.816;2024-01-30T10:03:00;11.50;;;7.80;;
71655;SDS011;59497;48.798;8.816;2024-01-30T10:05:26;10.93;;;7.93;;
71655;SDS011;59497;48.798;8.816;2024-01-30T10:07:52;11.98;;;7.68;;
71655;SDS011;59497;48.798;8.816;2024-01-30T10:10:18;11.27;;;7.00;;
71655;SDS011;59497;48.798;8.816;2024-01-30T10:12:43;9.00;;;6.70;;
71655;SDS011;59497;48.798;8.816;2024-01-30T10:15:09;17.00;;;11.47;;
71655;SDS011;59497;48.798;8.816;2024-01-30T10:17:34;15.00;;;10.17;;
71655;SDS011;59497;48.798;8.816;2024-01-30T10:20:04;14.57;;;9.13;;
71655;SDS011;59497;48.798;8.816;2024-01-30T10:22:29;12.20;;;7.57;;
71655;SDS011;59497;48.798;8.816;2024-01-30T10:24:55;16.15;;;8.27;;
71655;SDS011;59497;48.798;8.816;2024-01-30T10:27:26;11.43;;;7.67;;
71655;SDS011;59497;48.798;8.816;2024-01-30T10:29:52;21.05;;;15.00;;
71655;SDS011;59497;48.798;8.816;2024-01-30T10:32:17;17.37;;;12.00;;
71655;SDS011;59497;48.798;8.816;2024-01-30T10:34:42;20.30;;;12.47;;
71655;SDS011;59497;48.798;8.816;2024-01-30T10:37:09;21.23;;;14.27;;
71655;SDS011;59497;48.798;8.816;2024-01-30T10:39:38;20.20;;;11.85;;
71655;SDS011;59497;48.798;8.816;2024-01-30T10:42:03;15.57;;;8.20;;
71655;SDS011;59497;48.798;8.816;2024-01-30T10:44:30;16.35;;;9.05;;
71655;SDS011;59497;48.798;8.816;2024-01-30T10:47:02;16.25;;;10.43;;
71655;SDS011;59497;48.798;8.816;2024-01-30T10:49:31;14.85;;;9.82;;
71655;SDS011;59497;48.798;8.816;2024-01-30T10:51:57;24.27;;;13.87;;
71655;SDS011;59497;48.798;8.816;2024-01-30T10:54:23;15.52;;;9.77;;
71655;SDS011;59497;48.798;8.816;2024-01-30T10:56:50;14.88;;;8.73;;
71655;SDS011;59497;48.798;8.816;2024-01-30T10:59:15;23.73;;;13.97;;
71655;SDS011;59497;48.798;8.816;2024-01-30T11:01:40;14.20;;;10.73;;
71655;SDS011;59497;48.798;8.816;2024-01-30T11:04:06;16.70;;;10.40;;
71655;SDS011;59497;48.798;8.816;2024-01-30T11:06:32;16.33;;;9.93;;
71655;SDS011;59497;48.798;8.816;2024-01-30T11:09:05;13.47;;;7.87;;
71655;SDS011;59497;48.798;8.816;2024-01-30T11:11:48;24.75;;;13.48;;
71655;SDS011;59497;48.798;8.816;2024-01-30T11:14:13;18.48;;;10.15;;
71655;SDS011;59497;48.798;8.816;2024-01-30T11:16:39;17.47;;;9.63;;
71655;SDS011;59497;48.798;8.816;2024-01-30T11:19:05;14.10;;;7.30;;
71655;SDS011;59497;48.798;8.816;2024-01-30T11:21:40;11.10;;;6.72;;
71655;SDS011;59497;48.798;8.816;2024-01-30T11:24:05;10.73;;;6.57;;
71655;SDS011;59497;48.798;8.816;2024-01-30T11:26:32;11.10;;;6.97;;
71655;SDS011;59497;48.798;8.816;2024-01-30T11:28:57;13.37;;;8.17;;
71655;SDS011;59497;48.798;8.816;2024-01-30T11:31:23;13.73;;;9.43;;
71655;SDS011;59497;48.798;8.816;2024-01-30T11:33:48;10.23;;;6.80;;
71655;SDS011;59497;48.798;8.816;2024-01-30T11:36:17;10.85;;;8.13;;
71655;SDS011;59497;48.798;8.816;2024-01-30T11:38:43;14.85;;;12.02;;
71655;SDS011;59497;48.798;8.816;2024-01-30T11:41:10;18.20;;;13.35;;
71655;SDS011;59497;48.798;8.816;2024-01-30T11:43:35;11.27;;;8.40;;
71655;SDS011;59497;48.798;8.816;2024-01-30T11:46:00;11.87;;;9.33;;
71655;SDS011;59497;48.798;8.816;2024-01-30T11:48:26;9.23;;;7.73;;
71655;SDS011;59497;48.798;8.816;2024-01-30T11:50:51;10.90;;;7.20;;
71655;SDS011;59497;48.798;8.816;2024-01-30T11:53:16;9.97;;;6.87;;
71655;SDS011;59497;48.798;8.816;2024-01-30T11:55:42;11.07;;;6.77;;
71655;SDS011;59497;48.798;8.816;2024-01-30T11:58:08;12.00;;;7.40;;
71655;SDS011;59497;48.798;8.816;2024-01-30T12:00:33;12.60;;;8.17;;
71655;SDS011;59497;48.798;8.816;2024-01-30T12:02:58;9.63;;;6.60;;
71655;SDS011;59497;48.798;8.816;2024-01-30T12:05:25;10.98;;;7.22;;
71655;SDS011;59497;48.798;8.816;2024-01-30T12:07:51;14.95;;;7.90;;
71655;SDS011;59497;48.798;8.816;2024-01-30T12:10:16;12.73;;;10.17;;
71655;SDS011;59497;48.798;8.816;2024-01-30T12:12:43;11.27;;;7.78;;
71655;SDS011;59497;48.798;8.816;2024-01-30T12:15:09;14.30;;;8.10;;
71655;SDS011;59497;48.798;8.816;2024-01-30T12:17:35;9.53;;;6.67;;
71655;SDS011;59497;48.798;8.816;2024-01-30T12:20:07;9.60;;;6.60;;
71655;SDS011;59497;48.798;8.816;2024-01-30T12:22:36;8.32;;;5.35;;
71655;SDS011;59497;48.798;8.816;2024-01-30T12:25:02;9.60;;;5.50;;
71655;SDS011;59497;48.798;8.816;2024-01-30T12:27:27;10.40;;;5.63;;
71655;SDS011;59497;48.798;8.816;2024-01-30T12:29:56;9.97;;;6.07;;
71655;SDS011;59497;48.798;8.816;2024-01-30T12:32:22;9.40;;;5.60;;
71655;SDS011;59497;48.798;8.816;2024-01-30T12:34:48;9.13;;;6.20;;
71655;SDS011;59497;48.798;8.816;2024-01-30T12:37:13;8.43;;;5.70;;
71655;SDS011;59497;48.798;8.816;2024-01-30T12:39:38;6.20;;;5.00;;
71655;SDS011;59497;48.798;8.816;2024-01-30T12:42:04;4.93;;;3.83;;
71655;SDS011;59497;48.798;8.816;2024-01-30T12:44:29;5.17;;;3.57;;
71655;SDS011;59497;48.798;8.816;2024-01-30T12:46:54;4.53;;;3.00;;
71655;SDS011;59497;48.798;8.816;2024-01-30T12:49:19;4.47;;;3.27;;
71655;SDS011;59497;48.798;8.816;2024-01-30T12:51:46;3.85;;;2.63;;
71655;SDS011;59497;48.798;8.816;2024-01-30T12:54:12;4.70;;;3.17;;
71655;SDS011;59497;48.798;8.816;2024-01-30T12:56:37;4.57;;;3.13;;
71655;SDS011;59497;48.798;8.816;2024-01-30T12:59:02;4.23;;;2.80;;
71655;SDS011;59497;48.798;8.816;2024-01-30T13:01:27;4.67;;;3.30;;
71655;SDS011;59497;48.798;8.816;2024-01-30T13:03:53;5.77;;;3.23;;
71655;SDS011;59497;48.798;8.816;2024-01-30T13:06:18;4.30;;;3.07;;
71655;SDS011;59497;48.798;8.816;2024-01-30T13:08:43;4.30;;;3.27;;
71655;SDS011;59497;48.798;8.816;2024-01-30T13:11:09;4.60;;;3.00;;
71655;SDS011;59497;48.798;8.816;2024-01-30T13:13:34;5.70;;;2.93;;
71655;SDS011;59497;48.798;8.816;2024-01-30T13:16:00;4.72;;;3.50;;
71655;SDS011;59497;48.798;8.816;2024-01-30T13:18:25;4.67;;;3.03;;
71655;SDS011;59497;48.798;8.816;2024-01-30T13:20:51;4.00;;;3.30;;
71655;SDS011;59497;48.798;8.816;2024-01-30T13:23:16;3.93;;;3.00;;
71655;SDS011;59497;48.798;8.816;2024-01-30T13:25:41;4.93;;;3.30;;
71655;SDS011;59497;48.798;8.816;2024-01-30T13:28:06;4.13;;;2.93;;
71655;SDS011;59497;48.798;8.816;2024-01-30T13:30:32;6.43;;;3.10;;
71655;SDS011;59497;48.798;8.816;2024-01-30T13:32:57;5.10;;;3.37;;
71655;SDS011;59497;48.798;8.816;2024-01-30T13:35:22;4.97;;;3.50;;
71655;SDS011;59497;48.798;8.816;2024-01-30T13:37:47;7.57;;;3.70;;
71655;SDS011;59497;48.798;8.816;2024-01-30T13:40:13;5.65;;;3.50;;
71655;SDS011;59497;48.798;8.816;2024-01-30T13:42:39;6.15;;;3.65;;
71655;SDS011;59497;48.798;8.816;2024-01-30T13:45:05;5.47;;;3.77;;
71655;SDS011;59497;48.798;8.816;2024-01-30T13:47:30;6.30;;;3.47;;
71655;SDS011;59497;48.798;8.816;2024-01-30T13:49:55;3.83;;;3.17;;
71655;SDS011;59497;48.798;8.816;2024-01-30T13:52:21;3.57;;;2.70;;
71655;SDS011;59497;48.798;8.816;2024-01-30T13:54:46;4.53;;;2.70;;
71655;SDS011;59497;48.798;8.816;2024-01-30T13:57:12;3.47;;;2.57;;
71655;SDS011;59497;48.798;8.816;2024-01-30T13:59:38;4.32;;;3.03;;
71655;SDS011;59497;48.798;8.816;2024-01-30T14:02:03;5.40;;;3.10;;
71655;SDS011;59497;48.798;8.816;2024-01-30T14:04:28;4.93;;;3.20;;
71655;SDS011;59497;48.798;8.816;2024-01-30T14:06:54;4.80;;;2.77;;
71655;SDS011;59497;48.798;8.816;2024-01-30T14:09:19;3.80;;;2.60;;
71655;SDS011;59497;48.798;8.816;2024-01-30T14:11:46;3.97;;;2.80;;
71655;SDS011;59497;48.798;8.816;2024-01-30T14:14:11;3.93;;;2.53;;
71655;SDS011;59497;48.798;8.816;2024-01-30T14:16:36;5.33;;;3.00;;
71655;SDS011;59497;48.798;8.816;2024-01-30T14:19:01;4.10;;;3.50;;
71655;SDS011;59497;48.798;8.816;2024-01-30T14:21:27;4.67;;;3.30;;
71655;SDS011;59497;48.798;8.816;2024-01-30T14:23:52;4.87;;;3.37;;
71655;SDS011;59497;48.798;8.816;2024-01-30T14:26:17;5.50;;;3.40;;
71655;SDS011;59497;48.798;8.816;2024-01-30T14:28:43;6.73;;;3.70;;
71655;SDS011;59497;48.798;8.816;2024-01-30T14:31:08;5.03;;;3.72;;